Time;durP1;ratioP1;P1;durP2;ratioP2;P2;SDS_P1;SDS_P2;PMS_P1;PMS_P2;Temp;Humidity;BMP_temperature;BMP_pressure;BME280_temperature;BME280_humidity;BME280_pressure;Samples;Min_cycle;Max_cycle;Signal;HPM_P1;HPM_P2
2021/04/12 00:00:23;;;;;;;4.63;3.53;;;7.40;83.80;;;;;;4936980;29;20028;-73
2021/04/12 00:03:20;;;;;;;4.50;3.65;;;7.40;83.90;;;;;;4936970;29;20032;-74
2021/04/12 00:06:08;;;;;;;4.63;3.83;;;7.30;83.80;;;;;;4936817;29;20380;-74
2021/04/12 00:08:57;;;;;;;4.55;3.78;;;7.10;84.90;;;;;;4936810;29;20027;-73
2021/04/12 00:11:42;;;;;;;3.40;3.10;;;7.10;84.60;;;;;;4936611;29;20390;-74
2021/04/12 00:14:29;;;;;;;3.33;3.03;;;7.00;84.50;;;;;;4936758;29;20043;-73
2021/04/12 00:17:01;;;;;;;3.20;2.40;;;6.70;84.00;;;;;;4936555;29;20275;-73
2021/04/12 00:19:39;;;;;;;2.33;2.13;;;6.60;84.00;;;;;;4936698;29;20424;-73
2021/04/12 00:22:19;;;;;;;2.42;1.70;;;6.50;83.60;;;;;;4936400;29;20489;-74
2021/04/12 00:25:05;;;;;;;2.80;1.75;;;6.10;82.00;;;;;;4918948;29;20024;-73
2021/04/12 00:27:42;;;;;;;2.35;2.15;;;5.70;81.80;;;;;;4936256;29;20277;-73
2021/04/12 00:30:26;;;;;;;1.60;1.50;;;5.60;82.60;;;;;;4936656;29;20031;-73
2021/04/12 00:32:54;;;;;;;2.17;1.95;;;5.40;83.30;;;;;;4936481;29;20086;-73
2021/04/12 00:35:32;;;;;;;1.75;1.65;;;5.30;83.60;;;;;;4936395;29;20024;-73
2021/04/12 00:38:06;;;;;;;3.03;2.00;;;5.20;83.60;;;;;;4936401;29;20031;-73
2021/04/12 00:40:50;;;;;;;1.58;1.48;;;5.20;83.70;;;;;;4936415;29;20032;-73
2021/04/12 00:43:46;;;;;;;2.15;1.95;;;5.30;83.50;;;;;;4936065;29;20044;-73
2021/04/12 00:46:40;;;;;;;2.33;1.88;;;5.10;83.10;;;;;;4936225;29;20031;-73
2021/04/12 00:49:29;;;;;;;3.15;1.80;;;4.70;83.60;;;;;;4936282;29;20055;-74
2021/04/12 00:52:01;;;;;;;1.70;1.60;;;4.60;84.50;;;;;;4936052;29;20488;-73
2021/04/12 00:54:52;;;;;;;1.60;1.42;;;4.60;85.20;;;;;;4936060;29;20105;-73
2021/04/12 00:57:55;;;;;;;1.70;1.60;;;4.70;85.20;;;;;;4936108;29;20024;-73
2021/04/12 01:00:41;;;;;;;1.45;1.35;;;4.70;84.20;;;;;;4936113;29;20051;-74
2021/04/12 01:03:32;;;;;;;1.50;1.40;;;4.70;84.10;;;;;;4935988;29;20043;-73
2021/04/12 01:06:22;;;;;;;1.35;1.25;;;4.50;84.10;;;;;;4935882;29;20373;-73
2021/04/12 01:09:12;;;;;;;1.50;1.40;;;4.40;84.20;;;;;;4935757;29;20035;-73
2021/04/12 01:12:16;;;;;;;1.60;1.50;;;4.20;84.90;;;;;;4935669;29;20122;-73
2021/04/12 01:14:44;;;;;;;1.65;1.50;;;4.10;85.30;;;;;;4935346;29;20183;-73
2021/04/12 01:17:47;;;;;;;1.60;1.50;;;4.10;85.50;;;;;;4935606;29;20027;-73
2021/04/12 01:20:51;;;;;;;1.33;1.23;;;3.90;85.40;;;;;;4935664;29;20476;-73
2021/04/12 01:23:31;;;;;;;1.88;1.20;;;4.10;86.20;;;;;;4935733;29;20023;-73
2021/04/12 01:26:21;;;;;;;1.30;1.20;;;4.30;85.40;;;;;;4935741;29;20039;-74
2021/04/12 01:29:09;;;;;;;1.10;1.00;;;4.40;84.30;;;;;;4918689;29;20425;-73
2021/04/12 01:31:43;;;;;;;1.20;1.10;;;4.40;82.90;;;;;;4935933;29;20071;-74
2021/04/12 01:34:37;;;;;;;1.25;1.20;;;4.40;82.80;;;;;;4935665;29;20042;-73
2021/04/12 01:37:31;;;;;;;1.00;1.00;;;4.30;82.50;;;;;;4935624;29;20024;-74
2021/04/12 01:40:18;;;;;;;1.08;1.05;;;4.30;82.90;;;;;;4938267;29;20123;-74
2021/04/12 01:42:47;;;;;;;1.50;1.40;;;4.30;82.30;;;;;;4939513;29;20102;-74
2021/04/12 01:45:12;;;;;;;1.05;1.02;;;4.40;82.30;;;;;;4901089;29;20127;-73
2021/04/12 01:47:48;;;;;;;1.02;1.02;;;4.40;82.00;;;;;;4901124;29;20104;-76
2021/04/12 01:50:51;;;;;;;1.00;1.00;;;4.60;81.50;;;;;;4901121;29;20032;-75
2021/04/12 01:53:23;;;;;;;1.00;1.00;;;4.70;80.80;;;;;;4899609;29;20068;-76
2021/04/12 01:56:26;;;;;;;0.90;0.90;;;4.70;79.70;;;;;;4901385;29;20051;-75
2021/04/12 01:59:03;;;;;;;0.90;0.90;;;4.90;79.20;;;;;;4901544;29;20603;-75
2021/04/12 02:01:43;;;;;;;1.10;1.00;;;4.70;78.60;;;;;;4901292;29;20024;-75
2021/04/12 02:04:37;;;;;;;1.00;1.00;;;4.60;79.00;;;;;;4899995;29;20029;-76
2021/04/12 02:07:22;;;;;;;1.50;1.30;;;4.50;79.70;;;;;;4901216;29;20032;-76
2021/04/12 02:10:17;;;;;;;0.90;0.90;;;4.50;79.60;;;;;;4901121;29;20051;-75
2021/04/12 02:12:45;;;;;;;1.35;1.25;;;4.50;80.00;;;;;;4901090;29;20470;-75
2021/04/12 02:15:23;;;;;;;0.95;0.95;;;4.40;79.70;;;;;;4900973;29;20092;-76
2021/04/12 02:18:23;;;;;;;1.63;1.20;;;4.30;80.50;;;;;;4901082;29;20029;-76
2021/04/12 02:21:08;;;;;;;1.42;1.33;;;4.20;80.70;;;;;;4900993;29;20077;-74
2021/04/12 02:24:14;;;;;;;1.13;1.10;;;4.10;81.70;;;;;;4901062;29;20052;-75
2021/04/12 02:27:01;;;;;;;1.40;1.10;;;4.20;81.60;;;;;;4884327;29;20033;-76
2021/04/12 02:29:39;;;;;;;1.67;1.50;;;4.30;81.00;;;;;;4900899;29;20024;-76
2021/04/12 02:32:25;;;;;;;1.40;1.30;;;4.40;80.00;;;;;;4900748;29;20047;-73
2021/04/12 02:35:23;;;;;;;1.30;1.20;;;4.50;79.90;;;;;;4907445;29;20029;-75
2021/04/12 02:38:33;;;;;;;1.50;1.40;;;4.50;79.40;;;;;;4909376;29;20025;-73
2021/04/12 02:41:11;;;;;;;1.70;1.60;;;4.20;78.90;;;;;;4919148;29;20015;-73
2021/04/12 02:44:05;;;;;;;2.03;1.80;;;4.10;80.40;;;;;;4924378;29;20135;-73
2021/04/12 02:46:53;;;;;;;4.57;2.28;;;3.90;81.10;;;;;;4938925;29;20107;-74
2021/04/12 02:49:40;;;;;;;2.15;1.77;;;3.70;81.90;;;;;;4937839;29;20023;-75
2021/04/12 02:52:31;;;;;;;4.00;2.30;;;3.90;82.40;;;;;;4938254;29;20036;-75
2021/04/12 02:55:16;;;;;;;2.67;2.47;;;3.70;82.30;;;;;;4942793;29;20079;-75
2021/04/12 02:58:10;;;;;;;3.17;2.88;;;3.50;83.10;;;;;;4940476;29;20027;-75
2021/04/12 03:00:50;;;;;;;2.95;2.60;;;3.40;83.50;;;;;;4938254;29;20056;-74
2021/04/12 03:03:40;;;;;;;3.13;2.83;;;3.40;83.90;;;;;;4938349;29;20027;-75
2021/04/12 03:06:30;;;;;;;3.45;2.80;;;3.40;83.90;;;;;;4938113;29;20374;-75
2021/04/12 03:09:23;;;;;;;3.00;2.65;;;3.50;83.60;;;;;;4939223;29;20473;-75
2021/04/12 03:12:01;;;;;;;3.80;3.25;;;3.40;83.60;;;;;;4942094;29;20042;-75
2021/04/12 03:15:00;;;;;;;3.42;3.13;;;3.40;83.60;;;;;;4938490;29;20035;-74
2021/04/12 03:17:37;;;;;;;3.40;3.00;;;3.40;83.60;;;;;;4937945;29;20031;-77
2021/04/12 03:20:40;;;;;;;3.85;3.10;;;3.10;84.00;;;;;;4938107;29;20055;-75
2021/04/12 03:23:26;;;;;;;4.40;3.55;;;3.10;84.90;;;;;;4924332;29;20028;-75
2021/04/12 03:26:11;;;;;;;5.60;3.60;;;3.10;84.90;;;;;;4949209;29;20028;-75
2021/04/12 03:29:07;;;;;;;4.40;3.63;;;3.10;84.70;;;;;;4939218;29;20556;-74
2021/04/12 03:31:54;;;;;;;4.90;3.90;;;3.00;85.00;;;;;;4937655;29;20092;-75
2021/04/12 03:34:40;;;;;;;4.50;3.45;;;2.90;85.50;;;;;;4937333;29;20042;-75
2021/04/12 03:37:18;;;;;;;4.45;3.63;;;2.90;86.20;;;;;;4937418;29;20473;-75
2021/04/12 03:39:53;;;;;;;4.00;3.45;;;2.90;85.90;;;;;;4937692;29;20032;-75
2021/04/12 03:42:38;;;;;;;;;;;2.90;86.10;;;;;;4938546;29;20074;-75
2021/04/12 03:45:12;;;;;;;4.25;3.83;;;3.00;86.20;;;;;;4940840;29;20291;-74
2021/04/12 03:47:52;;;;;;;6.72;3.42;;;3.10;85.80;;;;;;4921079;29;20075;-76
2021/04/12 03:50:43;;;;;;;5.45;3.88;;;3.00;85.30;;;;;;4922688;29;20062;-76
2021/04/12 03:53:27;;;;;;;5.35;3.58;;;2.90;85.80;;;;;;4940653;29;20035;-76
2021/04/12 03:56:06;;;;;;;4.78;3.72;;;3.10;85.80;;;;;;4938725;29;20087;-76
2021/04/12 03:58:31;;;;;;;4.25;3.60;;;3.00;85.00;;;;;;4937433;29;20028;-75
2021/04/12 04:01:00;;;;;;;4.90;3.78;;;3.10;85.70;;;;;;4936664;29;20055;-73
2021/04/12 04:03:26;;;;;;;3.85;3.05;;;3.00;84.80;;;;;;4935979;29;20078;-74
2021/04/12 04:06:19;;;;;;;3.83;3.42;;;3.00;84.50;;;;;;4936671;29;20430;-73
2021/04/12 04:09:19;;;;;;;5.07;4.00;;;2.90;85.00;;;;;;4936571;29;20054;-73
2021/04/12 04:12:08;;;;;;;4.47;3.65;;;3.00;85.20;;;;;;4936550;29;20036;-74
2021/04/12 04:14:45;;;;;;;6.40;4.55;;;3.00;85.00;;;;;;4936918;29;20024;-74
2021/04/12 04:17:19;;;;;;;6.85;4.07;;;3.00;85.40;;;;;;4936797;29;20035;-74
2021/04/12 04:20:20;;;;;;;5.30;4.05;;;3.20;85.00;;;;;;4936512;29;20028;-73
2021/04/12 04:23:04;;;;;;;7.72;4.15;;;3.30;84.20;;;;;;4936545;29;20028;-74
2021/04/12 04:26:04;;;;;;;5.60;4.15;;;3.40;83.80;;;;;;4936534;29;20103;-74
2021/04/12 04:28:47;;;;;;;6.07;3.90;;;3.40;83.30;;;;;;4936532;29;20079;-73
2021/04/12 04:31:43;;;;;;;4.13;3.42;;;3.50;83.10;;;;;;4919312;29;20397;-73
2021/04/12 04:34:14;;;;;;;5.00;3.65;;;3.50;82.60;;;;;;4936452;29;20473;-73
2021/04/12 04:37:00;;;;;;;5.00;3.70;;;3.50;82.30;;;;;;4936581;29;20054;-74
2021/04/12 04:39:50;;;;;;;4.88;3.25;;;3.30;82.50;;;;;;4936344;29;20454;-73
2021/04/12 04:42:27;;;;;;;4.90;3.78;;;3.20;82.80;;;;;;4936829;29;20031;-76
2021/04/12 04:45:11;;;;;;;5.55;3.97;;;3.30;83.20;;;;;;4935867;29;20051;-74
2021/04/12 04:47:40;;;;;;;4.97;3.75;;;3.30;83.30;;;;;;4936073;29;20070;-73
2021/04/12 04:50:34;;;;;;;5.68;4.13;;;3.40;83.00;;;;;;4935784;29;20023;-73
2021/04/12 04:53:11;;;;;;;4.80;3.78;;;3.40;82.80;;;;;;4936073;29;20042;-73
2021/04/12 04:55:45;;;;;;;7.75;4.38;;;3.40;82.90;;;;;;4936144;29;20547;-73
2021/04/12 04:58:30;;;;;;;3.40;3.10;;;3.30;83.10;;;;;;4936763;29;20032;-73
2021/04/12 05:01:21;;;;;;;5.22;3.90;;;3.20;83.60;;;;;;4935880;29;20023;-74
2021/04/12 05:04:25;;;;;;;5.07;3.67;;;3.20;83.90;;;;;;4936051;29;20393;-73
2021/04/12 05:07:27;;;;;;;4.40;3.75;;;3.20;83.60;;;;;;4936081;29;20051;-73
2021/04/12 05:10:30;;;;;;;4.95;3.78;;;3.10;84.40;;;;;;4918972;29;20102;-73
2021/04/12 05:13:34;;;;;;;4.18;3.65;;;3.10;84.30;;;;;;4935858;29;20119;-73
2021/04/12 05:16:41;;;;;;;4.20;3.30;;;3.10;84.00;;;;;;4936286;29;20394;-73
2021/04/12 05:19:28;;;;;;;6.30;4.57;;;3.10;84.50;;;;;;4936697;29;20024;-73
2021/04/12 05:22:29;;;;;;;8.23;5.55;;;3.10;84.60;;;;;;4936854;29;20027;-73
2021/04/12 05:25:22;;;;;;;6.35;5.03;;;3.10;84.80;;;;;;4939579;29;20031;-75
2021/04/12 05:28:13;;;;;;;5.15;4.65;;;3.10;84.60;;;;;;4936740;29;20401;-74
2021/04/12 05:30:50;;;;;;;5.78;4.10;;;3.20;84.30;;;;;;4937337;29;20199;-73
2021/04/12 05:33:42;;;;;;;5.85;3.85;;;3.40;84.00;;;;;;4927652;29;20043;-73
2021/04/12 05:36:45;;;;;;;4.40;3.72;;;3.50;83.40;;;;;;4937055;29;20055;-74
2021/04/12 05:39:37;;;;;;;4.28;3.65;;;3.70;82.80;;;;;;4936962;29;20087;-73
2021/04/12 05:42:20;;;;;;;3.92;3.28;;;3.80;82.40;;;;;;4939933;29;20596;-74
2021/04/12 05:45:10;;;;;;;5.35;4.32;;;3.90;81.70;;;;;;4935850;29;20513;-74
2021/04/12 05:48:04;;;;;;;4.88;4.38;;;3.90;81.10;;;;;;4935809;29;20024;-74
2021/04/12 05:51:07;;;;;;;11.25;6.00;;;3.90;81.00;;;;;;4935443;29;20032;-75
2021/04/12 05:53:51;;;;;;;8.70;6.00;;;4.00;80.70;;;;;;4935713;29;20156;-76
2021/04/12 05:56:37;;;;;;;8.07;5.80;;;3.90;80.20;;;;;;4937014;29;20465;-74
2021/04/12 05:59:41;;;;;;;6.10;4.88;;;3.70;81.00;;;;;;4951777;29;20018;-75
2021/04/12 06:02:39;;;;;;;5.03;4.30;;;3.80;81.70;;;;;;4953813;29;20036;-73
2021/04/12 06:05:30;;;;;;;4.60;4.00;;;3.90;81.30;;;;;;4924423;29;20115;-74
2021/04/12 06:07:56;;;;;;;3.70;3.13;;;4.00;80.80;;;;;;4935635;29;20023;-74
2021/04/12 06:10:42;;;;;;;4.50;3.20;;;4.00;80.60;;;;;;4935108;29;20437;-75
2021/04/12 06:13:46;;;;;;;3.47;3.10;;;4.10;80.40;;;;;;4935156;29;20043;-73
2021/04/12 06:16:36;;;;;;;3.72;2.97;;;4.10;80.10;;;;;;4935335;29;20028;-73
2021/04/12 06:19:12;;;;;;;3.08;2.72;;;4.10;79.70;;;;;;4935242;29;20024;-73
2021/04/12 06:21:50;;;;;;;5.68;3.45;;;3.90;79.80;;;;;;4935374;29;20024;-73
2021/04/12 06:25:00;;;;;;;2.95;2.65;;;3.80;80.40;;;;;;4935080;29;20036;-73
2021/04/12 06:27:25;;;;;;;3.97;3.17;;;3.50;81.90;;;;;;4880160;29;20026;-73
2021/04/12 06:30:08;;;;;;;3.40;3.03;;;3.50;82.00;;;;;;4929604;29;20556;-73
2021/04/12 06:33:11;;;;;;;5.35;3.67;;;3.40;82.20;;;;;;4938183;29;20075;-74
2021/04/12 06:36:11;;;;;;;5.80;4.25;;;3.20;83.40;;;;;;4938824;29;20106;-73
2021/04/12 06:39:14;;;;;;;7.13;3.97;;;3.30;83.70;;;;;;4938550;29;20119;-74
2021/04/12 06:42:17;;;;;;;3.55;3.08;;;3.30;83.30;;;;;;4938758;29;20083;-73
2021/04/12 06:44:45;;;;;;;3.70;3.15;;;3.30;83.30;;;;;;4938476;29;20039;-73
2021/04/12 06:47:48;;;;;;;5.85;3.72;;;3.40;83.50;;;;;;4921462;29;20353;-73
2021/04/12 06:50:38;;;;;;;7.05;4.75;;;3.50;82.70;;;;;;4938032;29;20098;-74
2021/04/12 06:53:48;;;;;;;9.32;4.78;;;3.50;82.40;;;;;;4938095;29;20027;-75
2021/04/12 06:56:16;;;;;;;6.22;4.38;;;3.40;82.70;;;;;;4938295;29;20028;-76
2021/04/12 06:59:06;;;;;;;7.90;4.40;;;3.50;82.40;;;;;;4938206;29;20024;-72
2021/04/12 07:02:07;;;;;;;5.40;4.03;;;3.60;82.80;;;;;;4938049;29;20103;-73
2021/04/12 07:04:57;;;;;;;5.25;3.88;;;3.70;82.00;;;;;;4938039;29;20024;-72
2021/04/12 07:08:14;;;;;;;4.55;3.75;;;3.80;81.80;;;;;;4938125;29;20028;-72
2021/04/12 07:10:59;;;;;;;4.25;3.53;;;3.80;81.20;;;;;;4914970;29;20046;-72
2021/04/12 07:14:00;;;;;;;6.03;3.70;;;3.80;81.10;;;;;;4922792;29;20082;-74
2021/04/12 07:17:09;;;;;;;5.25;4.22;;;3.60;81.10;;;;;;4938108;29;20035;-74
2021/04/12 07:20:04;;;;;;;5.00;4.05;;;3.50;81.60;;;;;;4920838;29;20031;-76
2021/04/12 07:22:47;;;;;;;4.43;3.90;;;3.40;81.90;;;;;;4937899;29;20024;-74
2021/04/12 07:25:46;;;;;;;5.43;4.15;;;3.40;82.20;;;;;;4937971;29;20465;-75
2021/04/12 07:28:30;;;;;;;6.30;4.47;;;3.70;82.20;;;;;;4938089;29;20024;-74
2021/04/12 07:31:38;;;;;;;5.63;4.22;;;3.70;81.40;;;;;;4938268;29;20059;-74
2021/04/12 07:34:16;;;;;;;4.88;4.32;;;3.70;81.10;;;;;;4947159;29;20027;-75
2021/04/12 07:37:14;;;;;;;8.27;4.07;;;3.90;80.80;;;;;;4947349;29;20028;-72
2021/04/12 07:40:00;;;;;;;6.80;4.07;;;3.90;79.90;;;;;;4949497;29;20133;-73
2021/04/12 07:43:13;;;;;;;5.22;4.28;;;4.10;80.00;;;;;;4946590;29;20030;-73
2021/04/12 07:45:45;;;;;;;5.70;4.63;;;4.20;79.40;;;;;;4943770;29;20106;-73
2021/04/12 07:48:50;;;;;;;7.45;4.55;;;4.40;78.80;;;;;;4938767;29;20107;-74
2021/04/12 07:51:31;;;;;;;5.82;4.65;;;4.60;77.80;;;;;;4937880;29;20039;-73
2021/04/12 07:54:18;;;;;;;5.93;4.88;;;4.80;76.80;;;;;;4944966;29;20020;-74
2021/04/12 07:57:20;;;;;;;7.00;5.90;;;4.70;76.30;;;;;;4943087;29;20031;-73
2021/04/12 08:00:23;;;;;;;5.85;4.82;;;4.70;76.30;;;;;;4941669;29;20028;-74
2021/04/12 08:03:01;;;;;;;10.68;6.38;;;4.90;76.40;;;;;;4933434;29;20044;-74
2021/04/12 08:06:03;;;;;;;7.15;5.95;;;5.10;75.60;;;;;;4940180;29;20503;-74
2021/04/12 08:08:54;;;;;;;7.78;6.15;;;5.00;74.50;;;;;;4922033;29;20464;-73
2021/04/12 08:11:35;;;;;;;6.82;5.68;;;5.00;74.10;;;;;;4939800;29;20039;-75
2021/04/12 08:14:22;;;;;;;7.90;6.32;;;4.90;75.10;;;;;;4939809;29;20027;-74
2021/04/12 08:17:26;;;;;;;8.10;6.22;;;4.90;75.10;;;;;;4938098;29;20016;-74
2021/04/12 08:19:52;;;;;;;8.07;5.75;;;4.70;74.90;;;;;;4919792;29;20043;-74
2021/04/12 08:22:54;;;;;;;8.68;6.00;;;4.40;75.50;;;;;;4937081;29;20106;-74
2021/04/12 08:25:47;;;;;;;8.88;6.32;;;4.40;76.50;;;;;;4937712;29;20043;-76
2021/04/12 08:29:02;;;;;;;16.10;6.85;;;4.20;77.30;;;;;;4936877;29;20039;-74
2021/04/12 08:31:50;;;;;;;8.95;5.32;;;5.00;90.00;;;;;;4937473;29;20042;-74
2021/04/12 08:34:46;;;;;;;8.10;4.13;;;6.10;91.00;;;;;;4937082;29;20099;-73
2021/04/12 08:37:44;;;;;;;5.97;3.80;;;6.70;82.50;;;;;;4936655;29;20429;-73
2021/04/12 08:40:34;;;;;;;5.22;3.50;;;7.50;79.40;;;;;;4898563;29;20051;-74
2021/04/12 08:43:34;;;;;;;7.65;4.57;;;8.00;73.70;;;;;;4936443;29;20055;-75
2021/04/12 08:46:37;;;;;;;6.20;3.90;;;8.40;69.10;;;;;;4936296;29;20046;-73
2021/04/12 08:49:14;;;;;;;5.78;3.75;;;8.50;66.30;;;;;;4936064;29;20059;-75
2021/04/12 08:51:58;;;;;;;5.57;4.07;;;8.60;66.40;;;;;;4936208;29;20078;-74
2021/04/12 08:54:48;;;;;;;5.63;3.72;;;8.40;65.00;;;;;;4936076;29;20032;-74
2021/04/12 08:57:41;;;;;;;7.13;4.95;;;8.30;65.60;;;;;;4935844;29;20035;-74
2021/04/12 09:00:37;;;;;;;5.78;4.35;;;8.20;64.80;;;;;;4935919;29;20028;-74
2021/04/12 09:03:30;;;;;;;6.38;3.92;;;8.30;65.60;;;;;;4936035;29;20106;-74
2021/04/12 09:06:32;;;;;;;4.70;3.42;;;8.50;65.00;;;;;;4935912;29;20036;-72
2021/04/12 09:09:29;;;;;;;4.38;3.47;;;8.60;63.60;;;;;;4951074;29;20059;-73
2021/04/12 09:12:31;;;;;;;6.90;4.93;;;8.70;63.00;;;;;;4955120;29;20090;-74
2021/04/12 09:15:08;;;;;;;4.80;3.35;;;8.40;60.60;;;;;;4955084;29;20019;-73
2021/04/12 09:18:01;;;;;;;6.90;4.13;;;8.60;62.70;;;;;;4937463;29;20031;-73
2021/04/12 09:20:35;;;;;;;9.52;4.95;;;8.50;61.60;;;;;;4954701;29;20050;-72
2021/04/12 09:23:21;;;;;;;10.75;4.93;;;8.70;61.60;;;;;;4954620;29;20028;-74
2021/04/12 09:26:05;;;;;;;5.85;4.70;;;8.50;59.90;;;;;;4954578;29;20023;-73
2021/04/12 09:28:36;;;;;;;7.47;5.68;;;8.00;59.50;;;;;;4954731;29;20031;-74
2021/04/12 09:31:25;;;;;;;10.13;5.72;;;7.70;60.20;;;;;;4954364;29;20408;-73
2021/04/12 09:34:15;;;;;;;7.40;5.68;;;7.40;60.60;;;;;;4937525;29;20035;-73
2021/04/12 09:37:09;;;;;;;9.02;5.80;;;6.80;62.60;;;;;;4954502;29;20489;-73
2021/04/12 09:40:21;;;;;;;8.13;6.03;;;5.90;64.90;;;;;;4954715;29;20031;-75
2021/04/12 09:43:05;;;;;;;8.73;5.72;;;5.80;67.40;;;;;;4954490;29;20024;-75
2021/04/12 09:45:41;;;;;;;9.43;5.75;;;5.80;68.50;;;;;;4954458;29;20058;-75
2021/04/12 09:48:34;;;;;;;8.48;6.55;;;6.00;67.80;;;;;;4954478;29;20036;-74
2021/04/12 09:51:36;;;;;;;7.32;5.97;;;6.00;67.40;;;;;;4954227;29;20071;-73
2021/04/12 09:54:27;;;;;;;8.38;5.90;;;5.90;68.40;;;;;;4954462;29;20510;-74
2021/04/12 09:57:30;;;;;;;8.63;6.00;;;6.00;68.50;;;;;;4953627;29;20031;-74
2021/04/12 10:00:03;;;;;;;7.68;5.28;;;6.10;67.30;;;;;;4954426;28;20046;-74
2021/04/12 10:02:46;;;;;;;9.95;6.20;;;6.20;67.60;;;;;;4957640;29;20102;-74
2021/04/12 10:05:24;;;;;;;9.70;6.80;;;6.00;67.30;;;;;;4940574;29;20059;-74
2021/04/12 10:07:55;;;;;;;8.68;6.85;;;5.90;67.70;;;;;;4959008;28;20025;-74
2021/04/12 10:10:29;;;;;;;12.38;6.53;;;5.90;68.80;;;;;;4953873;28;20023;-75
2021/04/12 10:13:16;;;;;;;10.52;6.22;;;6.00;68.40;;;;;;4958243;29;20031;-75
2021/04/12 10:16:12;;;;;;;9.45;5.57;;;6.00;67.10;;;;;;4957426;29;20488;-75
2021/04/12 10:18:47;;;;;;;;;;;6.20;66.80;;;;;;4957363;29;20107;-75
2021/04/12 10:21:21;;;;;;;8.65;5.75;;;6.30;66.10;;;;;;4957491;29;19953;-75
2021/04/12 10:23:52;;;;;;;7.57;5.65;;;6.30;65.80;;;;;;4957433;29;20555;-74
2021/04/12 10:26:25;;;;;;;7.85;6.00;;;6.40;67.20;;;;;;4957696;29;20353;-73
2021/04/12 10:29:08;;;;;;;8.73;5.35;;;6.50;65.40;;;;;;4957120;29;20031;-74
2021/04/12 10:31:43;;;;;;;11.23;6.28;;;6.50;65.80;;;;;;4957318;29;20365;-74
2021/04/12 10:34:26;;;;;;;8.60;6.28;;;6.30;65.90;;;;;;4957311;29;20376;-75
2021/04/12 10:37:08;;;;;;;8.82;5.70;;;6.20;65.30;;;;;;4957356;29;20023;-75
2021/04/12 10:39:45;;;;;;;9.48;5.72;;;6.30;66.00;;;;;;4957432;29;20049;-75
2021/04/12 10:42:33;;;;;;;11.60;6.07;;;6.40;65.20;;;;;;4940229;29;20066;-75
2021/04/12 10:45:12;;;;;;;10.38;5.90;;;6.60;65.10;;;;;;4957061;29;20043;-75
2021/04/12 10:47:50;;;;;;;10.23;5.65;;;6.70;65.50;;;;;;4957067;29;20046;-74
2021/04/12 10:50:34;;;;;;;8.43;5.57;;;6.80;64.40;;;;;;4956922;29;20027;-73
2021/04/12 10:53:24;;;;;;;9.75;5.40;;;6.70;63.60;;;;;;4939898;29;20054;-76
2021/04/12 10:56:04;;;;;;;5.85;4.97;;;6.90;63.40;;;;;;4957056;29;20019;-75
2021/04/12 10:58:59;;;;;;;8.77;5.22;;;7.10;63.30;;;;;;4956922;29;20397;-75
2021/04/12 11:01:30;;;;;;;6.60;4.70;;;7.00;61.00;;;;;;4956707;29;20020;-75
2021/04/12 11:04:30;;;;;;;6.78;5.18;;;7.10;60.70;;;;;;4956650;29;20127;-74
2021/04/12 11:07:22;;;;;;;7.05;4.57;;;7.20;59.30;;;;;;4956689;29;20466;-75
2021/04/12 11:09:50;;;;;;;5.30;4.28;;;7.30;60.60;;;;;;4956715;29;20115;-73
2021/04/12 11:12:28;;;;;;;7.53;4.57;;;7.30;60.70;;;;;;4956848;28;20511;-72
2021/04/12 11:15:04;;;;;;;8.95;4.78;;;7.40;59.10;;;;;;4956842;29;20026;-74
2021/04/12 11:17:55;;;;;;;7.55;4.50;;;7.10;58.10;;;;;;4956519;29;20023;-73
2021/04/12 11:20:31;;;;;;;6.13;3.58;;;7.20;58.20;;;;;;4939584;29;20024;-72
2021/04/12 11:23:20;;;;;;;6.68;3.60;;;7.40;58.50;;;;;;4939438;29;20051;-76
2021/04/12 11:25:59;;;;;;;10.40;5.32;;;7.70;58.70;;;;;;4931479;29;20036;-75
2021/04/12 11:28:37;;;;;;;6.40;4.78;;;8.00;59.40;;;;;;4956663;29;20476;-75
2021/04/12 11:31:30;;;;;;;7.75;5.43;;;8.10;60.20;;;;;;4956171;29;20035;-75
2021/04/12 11:34:13;;;;;;;8.27;5.57;;;8.30;60.60;;;;;;4939188;29;20200;-74
2021/04/12 11:37:04;;;;;;;11.20;6.00;;;8.40;60.30;;;;;;4953810;29;20027;-74
2021/04/12 11:39:34;;;;;;;6.65;4.55;;;8.70;58.30;;;;;;4942481;29;20315;-74
2021/04/12 11:42:12;;;;;;;7.97;4.72;;;8.90;58.10;;;;;;4936813;29;20531;-76
2021/04/12 11:45:08;;;;;;;8.55;4.60;;;9.40;58.00;;;;;;4936472;29;20075;-75
2021/04/12 11:47:58;;;;;;;10.02;4.72;;;10.10;57.40;;;;;;4937133;29;20491;-74
2021/04/12 11:51:02;;;;;;;5.22;3.80;;;10.60;54.00;;;;;;4919891;29;20032;-75
2021/04/12 11:56:48;;;;;;;5.18;3.13;;;10.70;51.20;;;;;;4995264;28;20050;-77
2021/04/12 11:59:40;;;;;;;4.63;3.20;;;10.50;55.10;;;;;;4993870;23;20598;-77
2021/04/12 12:02:12;;;;;;;6.55;3.20;;;10.40;56.20;;;;;;4957803;28;20158;-75
2021/04/12 12:04:46;;;;;;;5.30;2.72;;;10.30;57.30;;;;;;5002824;23;20059;-74
2021/04/12 12:07:17;;;;;;;5.68;2.97;;;10.30;56.60;;;;;;4994507;28;21148;-75
2021/04/12 12:10:21;;;;;;;7.57;2.85;;;10.20;55.80;;;;;;4994572;28;20416;-75
2021/04/12 12:13:02;;;;;;;5.60;2.70;;;10.00;54.90;;;;;;4928509;28;20330;-75
2021/04/12 12:15:57;;;;;;;6.43;2.03;;;10.00;55.30;;;;;;4994534;28;20479;-76
2021/04/12 12:18:29;;;;;;;4.60;2.60;;;9.90;54.10;;;;;;4976734;28;20030;-75
2021/04/12 12:21:33;;;;;;;5.15;2.58;;;10.10;54.40;;;;;;4994298;28;20022;-75
2021/04/12 12:24:12;;;;;;;3.80;2.53;;;10.00;50.90;;;;;;4988283;28;20051;-73
2021/04/12 12:26:57;;;;;;;4.63;2.78;;;9.30;49.60;;;;;;4976831;28;20026;-73
2021/04/12 12:29:27;;;;;;;5.30;2.42;;;8.80;51.20;;;;;;4994226;28;20031;-73
2021/04/12 12:32:12;;;;;;;6.32;3.47;;;7.70;54.10;;;;;;4976330;28;20056;-75
2021/04/12 12:35:01;;;;;;;5.60;2.67;;;7.50;56.30;;;;;;4977041;28;20238;-74
2021/04/12 12:37:53;;;;;;;3.63;2.38;;;7.70;55.50;;;;;;4976551;28;20088;-75
2021/04/12 12:40:24;;;;;;;7.90;2.65;;;7.40;52.70;;;;;;4976640;28;20438;-74
2021/04/12 12:43:00;;;;;;;3.45;2.05;;;7.30;52.80;;;;;;4994058;28;20030;-75
2021/04/12 12:45:29;;;;;;;3.83;2.65;;;7.30;52.70;;;;;;4993807;28;20033;-75
2021/04/12 12:48:03;;;;;;;3.38;2.47;;;7.30;53.30;;;;;;4993856;28;20405;-74
2021/04/12 12:50:43;;;;;;;7.88;2.80;;;7.60;52.80;;;;;;4993771;28;20057;-74
2021/04/12 12:53:20;;;;;;;3.78;2.65;;;8.10;51.10;;;;;;4976228;28;20065;-74
2021/04/12 12:56:13;;;;;;;5.00;2.88;;;8.60;49.20;;;;;;4976223;28;20472;-74
2021/04/12 12:58:51;;;;;;;6.70;2.50;;;9.10;47.50;;;;;;4962710;28;20042;-75
2021/04/12 13:01:34;;;;;;;5.40;2.33;;;8.90;46.10;;;;;;4976313;28;20026;-74
2021/04/12 13:04:16;;;;;;;3.88;2.20;;;8.80;45.40;;;;;;4976122;28;20027;-75
2021/04/12 13:06:44;;;;;;;2.92;2.30;;;8.80;45.00;;;;;;4976271;28;20459;-74
2021/04/12 13:09:30;;;;;;;4.57;2.67;;;8.90;44.40;;;;;;4993586;28;20554;-74
2021/04/12 13:12:08;;;;;;;;;;;8.60;44.30;;;;;;4993944;28;20034;-75
2021/04/12 13:14:38;;;;;;;7.45;3.47;;;8.70;44.50;;;;;;4975946;28;19912;-75
2021/04/12 13:17:27;;;;;;;4.55;2.70;;;8.70;45.60;;;;;;4993636;28;20038;-75
2021/04/12 13:19:57;;;;;;;5.72;3.13;;;8.80;46.00;;;;;;4976075;28;20023;-75
2021/04/12 13:22:46;;;;;;;9.98;3.63;;;8.80;45.70;;;;;;4993412;28;20034;-75
2021/04/12 13:25:17;;;;;;;5.90;2.30;;;8.80;45.60;;;;;;4975801;28;20026;-77
2021/04/12 13:27:46;;;;;;;3.35;2.10;;;8.80;45.70;;;;;;4976070;28;20026;-75
2021/04/12 13:30:19;;;;;;;8.07;3.03;;;8.80;44.50;;;;;;4993207;28;20041;-77
2021/04/12 13:32:54;;;;;;;5.03;2.72;;;8.60;44.00;;;;;;4976011;28;20045;-77
2021/04/12 13:35:22;;;;;;;5.18;3.13;;;8.10;45.30;;;;;;4977798;28;20027;-76
2021/04/12 13:37:51;;;;;;;7.20;2.83;;;7.80;46.10;;;;;;4979995;28;20120;-76
2021/04/12 13:40:35;;;;;;;8.18;2.78;;;7.70;45.20;;;;;;4980082;28;20027;-77
2021/04/12 13:43:06;;;;;;;4.00;2.53;;;7.30;46.70;;;;;;4979683;28;20022;-76
2021/04/12 13:45:41;;;;;;;4.90;2.83;;;7.10;46.40;;;;;;4979865;28;20026;-75
2021/04/12 13:48:11;;;;;;;5.93;2.78;;;7.00;47.30;;;;;;4979599;28;20109;-75
2021/04/12 13:50:58;;;;;;;6.47;2.90;;;7.00;47.50;;;;;;4996880;28;20045;-75
2021/04/12 13:53:46;;;;;;;4.90;2.90;;;7.20;48.20;;;;;;4997106;28;20027;-76
2021/04/12 13:56:20;;;;;;;4.35;2.38;;;7.30;48.20;;;;;;4979658;28;20432;-75
2021/04/12 13:58:58;;;;;;;3.97;2.53;;;7.40;48.70;;;;;;4979611;28;20037;-76
2021/04/12 14:01:26;;;;;;;5.38;3.03;;;7.60;48.80;;;;;;4997066;28;20058;-75
2021/04/12 14:04:11;;;;;;;4.03;2.75;;;7.90;48.30;;;;;;4979499;28;20479;-75
2021/04/12 14:06:59;;;;;;;5.53;3.13;;;7.70;47.90;;;;;;4979564;28;20526;-76
2021/04/12 14:10:24;;;;;;;7.38;3.22;;;7.80;48.00;;;;;;4978993;28;20030;-75
2021/04/12 14:13:08;;;;;;;6.10;3.60;;;7.70;48.10;;;;;;4917634;29;20043;-75
2021/04/12 14:15:51;;;;;;;6.72;3.72;;;7.10;49.80;;;;;;4901817;29;20031;-75
2021/04/12 14:18:33;;;;;;;6.22;3.90;;;6.80;50.60;;;;;;4984790;28;20068;-74
2021/04/12 14:21:27;;;;;;;7.68;3.72;;;6.60;51.90;;;;;;4979030;28;20038;-75
2021/04/12 14:23:55;;;;;;;7.07;3.30;;;6.60;52.50;;;;;;4996073;28;20511;-74
2021/04/12 14:26:30;;;;;;;6.38;3.78;;;6.60;53.00;;;;;;4997907;28;20030;-73
2021/04/12 14:29:01;;;;;;;7.80;3.80;;;6.60;52.20;;;;;;4980563;28;20069;-74
2021/04/12 14:31:35;;;;;;;4.72;3.67;;;6.60;52.10;;;;;;4979749;28;20031;-73
2021/04/12 14:34:08;;;;;;;5.53;3.50;;;6.40;52.10;;;;;;4996843;28;20426;-74
2021/04/12 14:36:40;;;;;;;5.82;3.53;;;6.40;52.50;;;;;;4979210;28;20483;-73
2021/04/12 14:39:24;;;;;;;10.77;4.13;;;6.30;52.60;;;;;;4997419;28;20484;-74